sensor_id;sensor_type;location;lat;lon;timestamp;P1;durP1;ratioP1;P2;durP2;ratioP2
27983;SDS011;15317;50.360;8.726;2023-07-31T00:04:21;3.43;;;2.10;;
27983;SDS011;15317;50.360;8.726;2023-07-31T00:09:24;3.90;;;2.10;;
27983;SDS011;15317;50.360;8.726;2023-07-31T00:14:29;6.27;;;2.37;;
27983;SDS011;15317;50.360;8.726;2023-07-31T00:19:32;4.77;;;2.07;;
27983;SDS011;15317;50.360;8.726;2023-07-31T00:24:35;7.40;;;2.07;;
27983;SDS011;15317;50.360;8.726;2023-07-31T00:29:40;5.10;;;2.40;;
27983;SDS011;15317;50.360;8.726;2023-07-31T00:34:43;4.33;;;2.40;;
27983;SDS011;15317;50.360;8.726;2023-07-31T00:39:46;4.53;;;2.30;;
27983;SDS011;15317;50.360;8.726;2023-07-31T00:44:51;4.20;;;2.53;;
27983;SDS011;15317;50.360;8.726;2023-07-31T00:49:54;4.00;;;2.00;;
27983;SDS011;15317;50.360;8.726;2023-07-31T00:54:57;4.93;;;2.40;;
27983;SDS011;15317;50.360;8.726;2023-07-31T01:00:02;4.73;;;2.33;;
27983;SDS011;15317;50.360;8.726;2023-07-31T01:05:06;4.20;;;2.17;;
27983;SDS011;15317;50.360;8.726;2023-07-31T01:10:11;4.30;;;2.57;;
27983;SDS011;15317;50.360;8.726;2023-07-31T01:15:20;4.97;;;2.40;;
27983;SDS011;15317;50.360;8.726;2023-07-31T01:20:24;4.13;;;2.30;;
27983;SDS011;15317;50.360;8.726;2023-07-31T01:31:03;4.50;;;2.40;;
27983;SDS011;15317;50.360;8.726;2023-07-31T01:36:10;5.93;;;2.73;;
27983;SDS011;15317;50.360;8.726;2023-07-31T01:41:17;4.90;;;2.40;;
27983;SDS011;15317;50.360;8.726;2023-07-31T01:46:21;4.80;;;2.40;;
27983;SDS011;15317;50.360;8.726;2023-07-31T01:51:24;5.33;;;2.70;;
27983;SDS011;15317;50.360;8.726;2023-07-31T01:56:29;4.83;;;2.73;;
27983;SDS011;15317;50.360;8.726;2023-07-31T02:01:32;6.13;;;2.60;;
27983;SDS011;15317;50.360;8.726;2023-07-31T02:06:35;3.63;;;2.20;;
27983;SDS011;15317;50.360;8.726;2023-07-31T02:11:41;5.20;;;2.80;;
27983;SDS011;15317;50.360;8.726;2023-07-31T02:16:44;4.67;;;2.50;;
27983;SDS011;15317;50.360;8.726;2023-07-31T02:21:47;5.27;;;2.80;;
27983;SDS011;15317;50.360;8.726;2023-07-31T02:26:52;3.93;;;2.40;;
27983;SDS011;15317;50.360;8.726;2023-07-31T02:31:55;5.33;;;2.63;;
27983;SDS011;15317;50.360;8.726;2023-07-31T02:36:58;4.27;;;2.37;;
27983;SDS011;15317;50.360;8.726;2023-07-31T02:42:03;5.57;;;2.53;;
27983;SDS011;15317;50.360;8.726;2023-07-31T02:47:07;4.93;;;2.40;;
27983;SDS011;15317;50.360;8.726;2023-07-31T02:52:10;3.93;;;2.67;;
27983;SDS011;15317;50.360;8.726;2023-07-31T02:57:14;4.40;;;2.33;;
27983;SDS011;15317;50.360;8.726;2023-07-31T03:02:18;4.07;;;2.90;;
27983;SDS011;15317;50.360;8.726;2023-07-31T03:07:21;4.80;;;2.80;;
27983;SDS011;15317;50.360;8.726;2023-07-31T03:12:26;4.30;;;2.60;;
27983;SDS011;15317;50.360;8.726;2023-07-31T03:17:29;3.63;;;3.00;;
27983;SDS011;15317;50.360;8.726;2023-07-31T03:22:32;3.63;;;3.07;;
27983;SDS011;15317;50.360;8.726;2023-07-31T03:27:38;3.37;;;2.70;;
27983;SDS011;15317;50.360;8.726;2023-07-31T03:32:41;4.17;;;3.37;;
27983;SDS011;15317;50.360;8.726;2023-07-31T03:37:45;5.43;;;3.27;;
27983;SDS011;15317;50.360;8.726;2023-07-31T03:42:50;4.83;;;2.77;;
27983;SDS011;15317;50.360;8.726;2023-07-31T03:47:53;3.90;;;2.87;;
27983;SDS011;15317;50.360;8.726;2023-07-31T03:52:56;3.80;;;3.20;;
27983;SDS011;15317;50.360;8.726;2023-07-31T03:58:01;3.10;;;2.63;;
27983;SDS011;15317;50.360;8.726;2023-07-31T04:03:04;4.67;;;3.30;;
27983;SDS011;15317;50.360;8.726;2023-07-31T04:08:07;4.73;;;3.00;;
27983;SDS011;15317;50.360;8.726;2023-07-31T04:13:12;3.83;;;2.90;;
27983;SDS011;15317;50.360;8.726;2023-07-31T04:18:15;4.00;;;2.67;;
27983;SDS011;15317;50.360;8.726;2023-07-31T04:23:18;4.97;;;2.90;;
27983;SDS011;15317;50.360;8.726;2023-07-31T04:28:23;4.60;;;3.07;;
27983;SDS011;15317;50.360;8.726;2023-07-31T04:33:28;3.17;;;2.87;;
27983;SDS011;15317;50.360;8.726;2023-07-31T04:38:31;5.63;;;3.13;;
27983;SDS011;15317;50.360;8.726;2023-07-31T04:43:36;5.13;;;3.60;;
27983;SDS011;15317;50.360;8.726;2023-07-31T04:48:41;4.60;;;3.37;;
27983;SDS011;15317;50.360;8.726;2023-07-31T04:53:44;6.77;;;3.90;;
27983;SDS011;15317;50.360;8.726;2023-07-31T04:58:49;4.43;;;3.30;;
27983;SDS011;15317;50.360;8.726;2023-07-31T05:03:52;6.60;;;3.53;;
27983;SDS011;15317;50.360;8.726;2023-07-31T05:08:55;6.17;;;3.47;;
27983;SDS011;15317;50.360;8.726;2023-07-31T05:14:00;8.73;;;3.97;;
27983;SDS011;15317;50.360;8.726;2023-07-31T05:19:03;7.03;;;3.77;;
27983;SDS011;15317;50.360;8.726;2023-07-31T05:24:06;6.37;;;3.60;;
27983;SDS011;15317;50.360;8.726;2023-07-31T05:29:10;6.47;;;3.23;;
27983;SDS011;15317;50.360;8.726;2023-07-31T05:34:14;6.77;;;3.13;;
27983;SDS011;15317;50.360;8.726;2023-07-31T05:39:17;4.13;;;3.13;;
27983;SDS011;15317;50.360;8.726;2023-07-31T05:44:22;6.50;;;3.40;;
27983;SDS011;15317;50.360;8.726;2023-07-31T05:49:25;6.00;;;3.50;;
27983;SDS011;15317;50.360;8.726;2023-07-31T05:54:29;6.00;;;3.80;;
27983;SDS011;15317;50.360;8.726;2023-07-31T05:59:33;6.63;;;4.27;;
27983;SDS011;15317;50.360;8.726;2023-07-31T06:04:37;6.83;;;3.60;;
27983;SDS011;15317;50.360;8.726;2023-07-31T06:09:40;6.90;;;3.97;;
27983;SDS011;15317;50.360;8.726;2023-07-31T06:14:44;8.90;;;3.40;;
27983;SDS011;15317;50.360;8.726;2023-07-31T06:19:48;7.33;;;3.47;;
27983;SDS011;15317;50.360;8.726;2023-07-31T06:24:51;5.87;;;3.10;;
27983;SDS011;15317;50.360;8.726;2023-07-31T06:29:56;5.40;;;3.30;;
27983;SDS011;15317;50.360;8.726;2023-07-31T06:34:59;4.30;;;3.33;;
27983;SDS011;15317;50.360;8.726;2023-07-31T06:40:02;7.67;;;3.53;;
27983;SDS011;15317;50.360;8.726;2023-07-31T06:45:10;6.67;;;3.37;;
27983;SDS011;15317;50.360;8.726;2023-07-31T06:50:14;6.87;;;3.80;;
27983;SDS011;15317;50.360;8.726;2023-07-31T06:55:18;6.87;;;3.93;;
27983;SDS011;15317;50.360;8.726;2023-07-31T07:00:24;5.77;;;3.43;;
27983;SDS011;15317;50.360;8.726;2023-07-31T07:05:27;6.93;;;3.60;;
27983;SDS011;15317;50.360;8.726;2023-07-31T07:10:31;8.57;;;3.60;;
27983;SDS011;15317;50.360;8.726;2023-07-31T07:15:35;4.53;;;3.37;;
27983;SDS011;15317;50.360;8.726;2023-07-31T07:20:39;6.40;;;3.63;;
27983;SDS011;15317;50.360;8.726;2023-07-31T07:25:42;5.13;;;3.03;;
27983;SDS011;15317;50.360;8.726;2023-07-31T07:30:50;7.50;;;3.60;;
27983;SDS011;15317;50.360;8.726;2023-07-31T07:35:54;5.93;;;3.40;;
27983;SDS011;15317;50.360;8.726;2023-07-31T07:40:57;7.27;;;3.33;;
27983;SDS011;15317;50.360;8.726;2023-07-31T07:46:01;5.07;;;3.77;;
27983;SDS011;15317;50.360;8.726;2023-07-31T07:51:05;5.27;;;3.50;;
27983;SDS011;15317;50.360;8.726;2023-07-31T07:56:08;6.50;;;4.03;;
27983;SDS011;15317;50.360;8.726;2023-07-31T08:01:12;6.50;;;3.50;;
27983;SDS011;15317;50.360;8.726;2023-07-31T08:06:16;5.77;;;3.57;;
27983;SDS011;15317;50.360;8.726;2023-07-31T08:11:19;4.70;;;3.33;;
27983;SDS011;15317;50.360;8.726;2023-07-31T08:16:25;5.67;;;3.50;;
27983;SDS011;15317;50.360;8.726;2023-07-31T08:21:28;6.37;;;3.40;;
27983;SDS011;15317;50.360;8.726;2023-07-31T08:26:32;7.53;;;3.67;;
27983;SDS011;15317;50.360;8.726;2023-07-31T08:31:36;5.87;;;3.33;;
27983;SDS011;15317;50.360;8.726;2023-07-31T08:36:39;8.87;;;3.70;;
27983;SDS011;15317;50.360;8.726;2023-07-31T08:41:43;5.97;;;3.63;;
27983;SDS011;15317;50.360;8.726;2023-07-31T08:46:48;5.53;;;3.27;;
27983;SDS011;15317;50.360;8.726;2023-07-31T08:51:52;6.83;;;3.47;;
27983;SDS011;15317;50.360;8.726;2023-07-31T08:56:56;5.13;;;3.07;;
27983;SDS011;15317;50.360;8.726;2023-07-31T09:02:04;5.00;;;3.33;;
27983;SDS011;15317;50.360;8.726;2023-07-31T09:07:10;5.63;;;3.40;;
27983;SDS011;15317;50.360;8.726;2023-07-31T09:12:15;5.27;;;3.50;;
27983;SDS011;15317;50.360;8.726;2023-07-31T09:17:29;5.90;;;3.50;;
27983;SDS011;15317;50.360;8.726;2023-07-31T09:22:34;5.33;;;3.30;;
27983;SDS011;15317;50.360;8.726;2023-07-31T09:27:45;6.00;;;3.80;;
27983;SDS011;15317;50.360;8.726;2023-07-31T09:32:51;4.30;;;3.50;;
27983;SDS011;15317;50.360;8.726;2023-07-31T09:38:03;6.00;;;3.97;;
27983;SDS011;15317;50.360;8.726;2023-07-31T09:43:08;6.33;;;4.00;;
27983;SDS011;15317;50.360;8.726;2023-07-31T09:48:15;6.30;;;4.13;;
27983;SDS011;15317;50.360;8.726;2023-07-31T09:53:19;5.73;;;3.50;;
27983;SDS011;15317;50.360;8.726;2023-07-31T09:58:31;6.97;;;4.20;;
27983;SDS011;15317;50.360;8.726;2023-07-31T10:03:39;6.43;;;4.00;;
27983;SDS011;15317;50.360;8.726;2023-07-31T10:08:43;7.70;;;4.13;;
27983;SDS011;15317;50.360;8.726;2023-07-31T10:13:50;6.00;;;3.77;;
27983;SDS011;15317;50.360;8.726;2023-07-31T10:18:56;8.10;;;3.90;;
27983;SDS011;15317;50.360;8.726;2023-07-31T10:24:01;6.17;;;4.23;;
27983;SDS011;15317;50.360;8.726;2023-07-31T10:29:05;6.43;;;4.13;;
27983;SDS011;15317;50.360;8.726;2023-07-31T10:34:11;8.43;;;4.30;;
27983;SDS011;15317;50.360;8.726;2023-07-31T10:44:46;6.93;;;3.70;;
27983;SDS011;15317;50.360;8.726;2023-07-31T10:49:51;6.13;;;3.80;;
27983;SDS011;15317;50.360;8.726;2023-07-31T11:00:20;6.10;;;3.80;;
27983;SDS011;15317;50.360;8.726;2023-07-31T11:05:47;4.23;;;3.30;;
27983;SDS011;15317;50.360;8.726;2023-07-31T11:11:04;4.57;;;3.20;;
27983;SDS011;15317;50.360;8.726;2023-07-31T11:16:08;4.73;;;3.23;;
27983;SDS011;15317;50.360;8.726;2023-07-31T11:21:14;4.60;;;3.40;;
27983;SDS011;15317;50.360;8.726;2023-07-31T11:26:18;4.37;;;3.50;;
27983;SDS011;15317;50.360;8.726;2023-07-31T11:31:21;6.13;;;3.42;;
27983;SDS011;15317;50.360;8.726;2023-07-31T11:36:26;4.97;;;3.55;;
27983;SDS011;15317;50.360;8.726;2023-07-31T11:41:29;5.57;;;3.60;;
27983;SDS011;15317;50.360;8.726;2023-07-31T11:46:32;4.85;;;3.78;;
27983;SDS011;15317;50.360;8.726;2023-07-31T11:51:37;5.20;;;3.50;;
27983;SDS011;15317;50.360;8.726;2023-07-31T11:56:40;4.32;;;3.30;;
27983;SDS011;15317;50.360;8.726;2023-07-31T12:01:44;5.38;;;3.15;;
27983;SDS011;15317;50.360;8.726;2023-07-31T12:06:49;3.97;;;3.47;;
27983;SDS011;15317;50.360;8.726;2023-07-31T12:11:58;4.35;;;3.30;;
27983;SDS011;15317;50.360;8.726;2023-07-31T12:17:03;5.25;;;3.38;;
27983;SDS011;15317;50.360;8.726;2023-07-31T12:22:13;5.22;;;3.58;;
27983;SDS011;15317;50.360;8.726;2023-07-31T12:27:18;4.78;;;3.38;;
27983;SDS011;15317;50.360;8.726;2023-07-31T12:32:24;6.07;;;3.45;;
27983;SDS011;15317;50.360;8.726;2023-07-31T12:37:31;5.55;;;3.30;;
27983;SDS011;15317;50.360;8.726;2023-07-31T12:42:36;5.13;;;3.50;;
27983;SDS011;15317;50.360;8.726;2023-07-31T12:47:39;4.57;;;3.40;;
27983;SDS011;15317;50.360;8.726;2023-07-31T12:52:43;4.25;;;2.85;;
27983;SDS011;15317;50.360;8.726;2023-07-31T12:57:46;3.88;;;2.90;;
27983;SDS011;15317;50.360;8.726;2023-07-31T13:02:50;4.20;;;3.17;;
27983;SDS011;15317;50.360;8.726;2023-07-31T13:07:55;4.43;;;3.38;;
27983;SDS011;15317;50.360;8.726;2023-07-31T13:12:58;3.40;;;3.10;;
27983;SDS011;15317;50.360;8.726;2023-07-31T13:18:01;4.90;;;3.00;;
27983;SDS011;15317;50.360;8.726;2023-07-31T13:23:06;3.45;;;2.95;;
27983;SDS011;15317;50.360;8.726;2023-07-31T13:28:09;4.72;;;3.20;;
27983;SDS011;15317;50.360;8.726;2023-07-31T13:33:12;4.13;;;3.47;;
27983;SDS011;15317;50.360;8.726;2023-07-31T13:38:36;4.07;;;3.10;;
27983;SDS011;15317;50.360;8.726;2023-07-31T13:43:40;3.70;;;3.00;;
27983;SDS011;15317;50.360;8.726;2023-07-31T13:48:43;4.38;;;3.05;;
27983;SDS011;15317;50.360;8.726;2023-07-31T13:53:47;3.42;;;2.97;;
27983;SDS011;15317;50.360;8.726;2023-07-31T13:58:51;3.72;;;3.22;;
27983;SDS011;15317;50.360;8.726;2023-07-31T14:03:54;4.28;;;3.10;;
27983;SDS011;15317;50.360;8.726;2023-07-31T14:08:58;4.38;;;3.22;;
27983;SDS011;15317;50.360;8.726;2023-07-31T14:14:02;3.95;;;3.60;;
27983;SDS011;15317;50.360;8.726;2023-07-31T14:19:06;4.00;;;3.13;;
27983;SDS011;15317;50.360;8.726;2023-07-31T14:24:12;4.03;;;3.03;;
27983;SDS011;15317;50.360;8.726;2023-07-31T14:29:15;4.75;;;3.30;;
27983;SDS011;15317;50.360;8.726;2023-07-31T14:34:18;5.75;;;3.15;;
27983;SDS011;15317;50.360;8.726;2023-07-31T14:39:22;3.78;;;3.03;;
27983;SDS011;15317;50.360;8.726;2023-07-31T14:44:26;3.75;;;3.13;;
27983;SDS011;15317;50.360;8.726;2023-07-31T14:49:29;4.50;;;2.53;;
27983;SDS011;15317;50.360;8.726;2023-07-31T14:54:33;4.15;;;2.70;;
27983;SDS011;15317;50.360;8.726;2023-07-31T14:59:38;3.97;;;2.55;;
27983;SDS011;15317;50.360;8.726;2023-07-31T15:04:41;3.67;;;2.60;;
27983;SDS011;15317;50.360;8.726;2023-07-31T15:09:45;4.70;;;2.80;;
27983;SDS011;15317;50.360;8.726;2023-07-31T15:14:49;3.95;;;2.58;;
27983;SDS011;15317;50.360;8.726;2023-07-31T15:19:53;2.88;;;2.30;;
27983;SDS011;15317;50.360;8.726;2023-07-31T15:24:58;3.75;;;2.47;;
27983;SDS011;15317;50.360;8.726;2023-07-31T15:30:02;4.28;;;2.40;;
27983;SDS011;15317;50.360;8.726;2023-07-31T15:35:07;3.42;;;2.05;;
27983;SDS011;15317;50.360;8.726;2023-07-31T15:40:12;3.35;;;2.47;;
27983;SDS011;15317;50.360;8.726;2023-07-31T15:45:15;4.68;;;2.72;;
27983;SDS011;15317;50.360;8.726;2023-07-31T15:50:19;4.88;;;2.97;;
27983;SDS011;15317;50.360;8.726;2023-07-31T15:55:23;3.42;;;2.85;;
27983;SDS011;15317;50.360;8.726;2023-07-31T16:00:27;4.47;;;2.90;;
27983;SDS011;15317;50.360;8.726;2023-07-31T16:05:30;4.55;;;3.30;;
27983;SDS011;15317;50.360;8.726;2023-07-31T16:10:35;4.28;;;3.20;;
27983;SDS011;15317;50.360;8.726;2023-07-31T16:15:38;5.07;;;3.00;;
27983;SDS011;15317;50.360;8.726;2023-07-31T16:20:41;4.53;;;3.28;;
27983;SDS011;15317;50.360;8.726;2023-07-31T16:25:46;3.85;;;3.35;;
27983;SDS011;15317;50.360;8.726;2023-07-31T16:30:49;3.28;;;2.60;;
27983;SDS011;15317;50.360;8.726;2023-07-31T16:35:52;2.70;;;2.50;;
27983;SDS011;15317;50.360;8.726;2023-07-31T16:40:57;2.97;;;2.05;;
27983;SDS011;15317;50.360;8.726;2023-07-31T16:46:00;4.30;;;2.10;;
27983;SDS011;15317;50.360;8.726;2023-07-31T16:51:03;3.03;;;2.00;;
27983;SDS011;15317;50.360;8.726;2023-07-31T16:56:08;3.40;;;1.97;;
27983;SDS011;15317;50.360;8.726;2023-07-31T17:01:11;3.22;;;2.13;;
27983;SDS011;15317;50.360;8.726;2023-07-31T17:06:14;1.70;;;1.57;;
27983;SDS011;15317;50.360;8.726;2023-07-31T17:11:19;3.47;;;1.90;;
27983;SDS011;15317;50.360;8.726;2023-07-31T17:16:22;1.90;;;1.80;;
27983;SDS011;15317;50.360;8.726;2023-07-31T17:21:25;2.03;;;1.83;;
27983;SDS011;15317;50.360;8.726;2023-07-31T17:26:30;3.37;;;2.30;;
27983;SDS011;15317;50.360;8.726;2023-07-31T17:31:33;2.47;;;2.03;;
27983;SDS011;15317;50.360;8.726;2023-07-31T17:36:37;2.33;;;2.10;;
27983;SDS011;15317;50.360;8.726;2023-07-31T17:41:42;3.13;;;2.20;;
27983;SDS011;15317;50.360;8.726;2023-07-31T17:46:45;3.60;;;2.37;;
27983;SDS011;15317;50.360;8.726;2023-07-31T17:51:49;3.30;;;2.47;;
27983;SDS011;15317;50.360;8.726;2023-07-31T17:56:53;3.77;;;2.90;;
27983;SDS011;15317;50.360;8.726;2023-07-31T18:01:57;3.27;;;2.77;;
27983;SDS011;15317;50.360;8.726;2023-07-31T18:07:00;4.47;;;2.60;;
27983;SDS011;15317;50.360;8.726;2023-07-31T18:12:05;3.07;;;2.77;;
27983;SDS011;15317;50.360;8.726;2023-07-31T18:17:09;5.83;;;3.20;;
27983;SDS011;15317;50.360;8.726;2023-07-31T18:22:13;3.97;;;3.00;;
27983;SDS011;15317;50.360;8.726;2023-07-31T18:27:18;4.03;;;3.20;;
27983;SDS011;15317;50.360;8.726;2023-07-31T18:32:22;4.57;;;3.70;;
27983;SDS011;15317;50.360;8.726;2023-07-31T18:37:26;5.57;;;3.87;;
27983;SDS011;15317;50.360;8.726;2023-07-31T18:42:30;6.40;;;4.40;;
27983;SDS011;15317;50.360;8.726;2023-07-31T18:47:33;4.37;;;3.97;;
27983;SDS011;15317;50.360;8.726;2023-07-31T18:52:36;6.03;;;3.73;;
27983;SDS011;15317;50.360;8.726;2023-07-31T18:57:41;5.30;;;4.47;;
27983;SDS011;15317;50.360;8.726;2023-07-31T19:02:45;4.47;;;3.87;;
27983;SDS011;15317;50.360;8.726;2023-07-31T19:07:49;5.37;;;3.70;;
27983;SDS011;15317;50.360;8.726;2023-07-31T19:12:53;6.80;;;4.03;;
27983;SDS011;15317;50.360;8.726;2023-07-31T19:17:56;3.87;;;3.57;;
27983;SDS011;15317;50.360;8.726;2023-07-31T19:23:00;4.27;;;3.77;;
27983;SDS011;15317;50.360;8.726;2023-07-31T19:28:04;4.50;;;4.00;;
27983;SDS011;15317;50.360;8.726;2023-07-31T19:33:07;5.27;;;3.87;;
27983;SDS011;15317;50.360;8.726;2023-07-31T19:38:11;4.97;;;3.60;;
27983;SDS011;15317;50.360;8.726;2023-07-31T19:43:15;5.37;;;3.93;;
27983;SDS011;15317;50.360;8.726;2023-07-31T19:48:18;4.93;;;3.70;;
27983;SDS011;15317;50.360;8.726;2023-07-31T19:53:23;4.73;;;3.90;;
27983;SDS011;15317;50.360;8.726;2023-07-31T19:58:27;4.90;;;3.53;;
27983;SDS011;15317;50.360;8.726;2023-07-31T20:03:31;4.37;;;3.83;;
27983;SDS011;15317;50.360;8.726;2023-07-31T20:08:35;4.80;;;4.30;;
27983;SDS011;15317;50.360;8.726;2023-07-31T20:13:39;5.30;;;4.20;;
27983;SDS011;15317;50.360;8.726;2023-07-31T20:18:43;6.03;;;4.70;;
27983;SDS011;15317;50.360;8.726;2023-07-31T20:23:46;5.13;;;4.03;;
27983;SDS011;15317;50.360;8.726;2023-07-31T20:28:51;9.07;;;4.80;;
27983;SDS011;15317;50.360;8.726;2023-07-31T20:33:54;6.43;;;4.63;;
27983;SDS011;15317;50.360;8.726;2023-07-31T20:38:57;5.93;;;4.80;;
27983;SDS011;15317;50.360;8.726;2023-07-31T20:44:02;6.63;;;5.20;;
27983;SDS011;15317;50.360;8.726;2023-07-31T20:49:05;6.60;;;5.17;;
27983;SDS011;15317;50.360;8.726;2023-07-31T20:54:09;6.60;;;5.13;;
27983;SDS011;15317;50.360;8.726;2023-07-31T20:59:14;6.37;;;5.50;;
27983;SDS011;15317;50.360;8.726;2023-07-31T21:04:17;7.53;;;6.07;;
27983;SDS011;15317;50.360;8.726;2023-07-31T21:09:20;8.60;;;5.60;;
27983;SDS011;15317;50.360;8.726;2023-07-31T21:14:25;8.37;;;5.50;;
27983;SDS011;15317;50.360;8.726;2023-07-31T21:19:28;7.57;;;5.67;;
27983;SDS011;15317;50.360;8.726;2023-07-31T21:24:31;8.87;;;5.73;;
27983;SDS011;15317;50.360;8.726;2023-07-31T21:29:36;8.07;;;6.13;;
27983;SDS011;15317;50.360;8.726;2023-07-31T21:34:39;7.73;;;6.20;;
27983;SDS011;15317;50.360;8.726;2023-07-31T21:39:43;10.03;;;6.33;;
27983;SDS011;15317;50.360;8.726;2023-07-31T21:44:48;8.20;;;6.30;;
27983;SDS011;15317;50.360;8.726;2023-07-31T21:49:51;9.53;;;6.80;;
27983;SDS011;15317;50.360;8.726;2023-07-31T21:54:54;10.93;;;7.17;;
27983;SDS011;15317;50.360;8.726;2023-07-31T21:59:59;11.07;;;7.50;;
27983;SDS011;15317;50.360;8.726;2023-07-31T22:05:02;11.20;;;7.97;;
27983;SDS011;15317;50.360;8.726;2023-07-31T22:10:06;10.00;;;7.40;;
27983;SDS011;15317;50.360;8.726;2023-07-31T22:15:10;9.20;;;7.63;;
27983;SDS011;15317;50.360;8.726;2023-07-31T22:20:15;8.30;;;6.97;;
27983;SDS011;15317;50.360;8.726;2023-07-31T22:25:19;8.13;;;6.83;;
27983;SDS011;15317;50.360;8.726;2023-07-31T22:30:24;9.03;;;7.57;;
27983;SDS011;15317;50.360;8.726;2023-07-31T22:35:27;8.10;;;7.20;;
27983;SDS011;15317;50.360;8.726;2023-07-31T22:40:31;9.10;;;7.07;;
27983;SDS011;15317;50.360;8.726;2023-07-31T22:45:36;9.27;;;7.00;;
27983;SDS011;15317;50.360;8.726;2023-07-31T22:50:39;7.90;;;7.07;;
27983;SDS011;15317;50.360;8.726;2023-07-31T22:55:43;7.90;;;6.57;;
27983;SDS011;15317;50.360;8.726;2023-07-31T23:00:47;7.40;;;6.17;;
27983;SDS011;15317;50.360;8.726;2023-07-31T23:05:51;7.13;;;5.60;;
27983;SDS011;15317;50.360;8.726;2023-07-31T23:10:54;8.07;;;5.23;;
27983;SDS011;15317;50.360;8.726;2023-07-31T23:15:58;7.97;;;5.57;;
27983;SDS011;15317;50.360;8.726;2023-07-31T23:21:01;7.20;;;5.57;;
27983;SDS011;15317;50.360;8.726;2023-07-31T23:26:05;6.60;;;6.07;;
27983;SDS011;15317;50.360;8.726;2023-07-31T23:31:09;7.17;;;5.60;;
27983;SDS011;15317;50.360;8.726;2023-07-31T23:36:13;4.73;;;4.33;;
27983;SDS011;15317;50.360;8.726;2023-07-31T23:41:17;5.40;;;4.67;;
27983;SDS011;15317;50.360;8.726;2023-07-31T23:46:22;5.70;;;3.77;;
27983;SDS011;15317;50.360;8.726;2023-07-31T23:51:25;4.57;;;3.50;;
27983;SDS011;15317;50.360;8.726;2023-07-31T23:56:28;7.27;;;3.87;;
